Time;durP1;ratioP1;P1;durP2;ratioP2;P2;SDS_P1;SDS_P2;PMS_P1;PMS_P2;Temp;Humidity;BMP_temperature;BMP_pressure;BME280_temperature;BME280_humidity;BME280_pressure;Samples;Min_cycle;Max_cycle;Signal;HPM_P1;HPM_P2
2023/07/18 00:00:25;;;;;;;29.65;12.07;;;14.00;99.90;;;;;;5039204;28;20401;-73
2023/07/18 00:02:51;;;;;;;23.30;11.32;;;14.10;99.90;;;;;;5041101;28;20081;-73
2023/07/18 00:05:17;;;;;;;23.52;11.95;;;14.10;99.90;;;;;;5042008;28;20022;-73
2023/07/18 00:07:42;;;;;;;27.75;11.85;;;14.00;99.90;;;;;;5044362;28;20071;-74
2023/07/18 00:10:09;;;;;;;24.85;11.18;;;14.00;99.90;;;;;;5045423;28;20025;-73
2023/07/18 00:12:39;;;;;;;25.30;11.57;;;14.00;99.90;;;;;;5045148;28;20022;-75
2023/07/18 00:15:06;;;;;;;26.27;11.13;;;14.00;99.90;;;;;;5043376;28;20032;-73
2023/07/18 00:17:33;;;;;;;29.88;12.20;;;14.10;99.90;;;;;;5043026;28;20041;-74
2023/07/18 00:20:01;;;;;;;25.60;11.93;;;14.00;99.90;;;;;;5044983;28;20032;-72
2023/07/18 00:22:26;;;;;;;25.60;11.48;;;14.00;99.90;;;;;;5044657;28;20025;-73
2023/07/18 00:24:52;;;;;;;25.00;12.23;;;14.00;99.90;;;;;;5044788;28;20064;-72
2023/07/18 00:27:17;;;;;;;27.83;11.98;;;14.00;99.90;;;;;;5042980;28;20026;-73
2023/07/18 00:29:43;;;;;;;27.33;12.43;;;14.00;99.90;;;;;;5044298;28;20045;-74
2023/07/18 00:32:10;;;;;;;27.67;12.50;;;14.00;99.90;;;;;;5044892;28;20021;-74
2023/07/18 00:34:37;;;;;;;29.65;12.48;;;14.00;99.90;;;;;;5042884;28;20093;-74
2023/07/18 00:37:02;;;;;;;26.58;12.07;;;14.00;99.90;;;;;;5044591;28;20029;-75
2023/07/18 00:39:28;;;;;;;27.08;11.80;;;13.90;99.90;;;;;;5044806;28;20139;-73
2023/07/18 00:41:54;;;;;;;28.85;12.18;;;13.90;99.90;;;;;;5043009;28;20044;-73
2023/07/18 00:44:19;;;;;;;22.50;12.32;;;13.90;99.90;;;;;;5044405;28;20028;-73
2023/07/18 00:46:45;;;;;;;27.55;11.90;;;13.90;99.90;;;;;;5044550;28;20036;-73
2023/07/18 00:49:12;;;;;;;25.83;12.68;;;13.90;99.90;;;;;;5042375;28;20025;-73
2023/07/18 00:51:37;;;;;;;28.65;12.18;;;13.90;99.90;;;;;;5042941;28;20506;-75
2023/07/18 00:54:04;;;;;;;29.88;12.07;;;13.90;99.90;;;;;;5043815;28;20021;-73
2023/07/18 00:56:30;;;;;;;29.45;13.35;;;13.90;99.90;;;;;;5043893;28;20127;-73
2023/07/18 00:58:58;;;;;;;30.50;13.05;;;13.90;99.90;;;;;;5044176;28;20029;-74
2023/07/18 01:01:24;;;;;;;30.48;12.35;;;13.90;99.90;;;;;;5042766;28;20041;-73
2023/07/18 01:03:49;;;;;;;29.60;12.95;;;13.90;99.90;;;;;;5043763;28;20030;-73
2023/07/18 01:06:15;;;;;;;28.75;12.40;;;13.90;99.90;;;;;;5044261;28;20103;-72
2023/07/18 01:08:41;;;;;;;26.60;12.52;;;13.90;99.90;;;;;;5044012;28;20029;-73
2023/07/18 01:11:07;;;;;;;31.38;12.73;;;13.90;99.90;;;;;;5044169;28;20489;-73
2023/07/18 01:13:34;;;;;;;30.55;12.77;;;13.90;99.90;;;;;;5041035;28;20025;-73
2023/07/18 01:16:01;;;;;;;29.67;13.02;;;13.80;99.90;;;;;;5041504;28;20378;-73
2023/07/18 01:18:26;;;;;;;28.15;12.93;;;13.90;99.90;;;;;;5042359;28;20046;-72
2023/07/18 01:20:54;;;;;;;26.63;12.50;;;13.90;99.90;;;;;;5042904;28;20089;-73
2023/07/18 01:23:21;;;;;;;29.23;12.88;;;13.80;99.90;;;;;;5042245;28;20101;-73
2023/07/18 01:25:47;;;;;;;30.42;12.68;;;13.80;99.90;;;;;;5043458;28;20022;-73
2023/07/18 01:28:12;;;;;;;29.30;13.30;;;13.80;99.90;;;;;;5043672;28;20035;-73
2023/07/18 01:30:38;;;;;;;32.78;13.70;;;13.80;99.90;;;;;;5041506;28;20200;-74
2023/07/18 01:33:05;;;;;;;22.83;11.10;;;13.80;99.90;;;;;;5043760;28;20057;-73
2023/07/18 01:35:31;;;;;;;28.02;12.10;;;13.80;99.90;;;;;;5040583;28;20057;-75
2023/07/18 01:37:58;;;;;;;31.38;12.13;;;13.70;99.90;;;;;;5042556;28;20045;-74
2023/07/18 01:40:24;;;;;;;25.92;12.50;;;13.70;99.90;;;;;;5043572;28;20017;-74
2023/07/18 01:42:54;;;;;;;30.20;12.20;;;13.70;99.90;;;;;;5042821;28;20108;-74
2023/07/18 01:45:22;;;;;;;33.35;12.88;;;13.70;99.90;;;;;;5042925;28;20613;-74
2023/07/18 01:47:49;;;;;;;26.58;11.63;;;13.70;99.90;;;;;;5042866;28;20104;-74
2023/07/18 01:50:15;;;;;;;30.17;12.88;;;13.70;99.90;;;;;;5042970;28;20022;-74
2023/07/18 01:52:40;;;;;;;27.92;12.57;;;13.70;99.90;;;;;;5041512;28;20029;-74
2023/07/18 01:55:07;;;;;;;31.67;13.32;;;13.60;99.90;;;;;;5042707;28;20030;-74
2023/07/18 01:57:47;;;;;;;27.52;13.40;;;13.70;99.90;;;;;;5043317;28;20049;-75
2023/07/18 02:00:21;;;;;;;27.67;12.32;;;13.70;99.90;;;;;;5039763;28;20018;-76
2023/07/18 02:02:52;;;;;;;27.52;12.35;;;13.60;99.90;;;;;;5038831;28;20029;-75
2023/07/18 02:05:21;;;;;;;24.73;12.13;;;13.60;99.90;;;;;;5041309;28;20119;-74
2023/07/18 02:07:47;;;;;;;29.40;12.73;;;13.50;99.90;;;;;;5041235;28;20067;-74
2023/07/18 02:10:15;;;;;;;25.92;12.23;;;13.60;99.90;;;;;;5042528;28;20025;-75
2023/07/18 02:12:41;;;;;;;28.88;12.50;;;13.50;99.90;;;;;;5041487;28;20021;-77
2023/07/18 02:15:07;;;;;;;31.52;13.43;;;13.50;99.90;;;;;;5039707;28;20501;-75
2023/07/18 02:17:34;;;;;;;28.08;12.05;;;13.50;99.90;;;;;;5040214;28;20037;-74
2023/07/18 02:20:03;;;;;;;29.95;13.25;;;13.50;99.90;;;;;;5040717;28;20424;-75
2023/07/18 02:22:34;;;;;;;27.05;12.80;;;13.50;99.90;;;;;;5041293;28;20488;-74
2023/07/18 02:25:02;;;;;;;23.48;12.15;;;13.40;99.90;;;;;;5040834;28;20025;-74
2023/07/18 02:27:28;;;;;;;32.35;12.90;;;13.50;99.90;;;;;;5039420;28;20053;-77
2023/07/18 02:29:54;;;;;;;31.00;12.52;;;13.50;99.90;;;;;;5039513;28;20025;-74
2023/07/18 02:32:21;;;;;;;29.20;12.93;;;13.40;99.90;;;;;;5040597;28;20017;-74
2023/07/18 02:34:47;;;;;;;25.45;12.88;;;13.40;99.90;;;;;;5040104;28;20085;-73
2023/07/18 02:37:13;;;;;;;33.15;13.40;;;13.40;99.90;;;;;;5042354;28;20064;-74
2023/07/18 02:39:39;;;;;;;31.58;14.23;;;13.40;99.90;;;;;;5041071;28;20095;-74
2023/07/18 02:42:06;;;;;;;26.90;12.50;;;13.40;99.90;;;;;;5040221;28;20033;-74
2023/07/18 02:44:32;;;;;;;30.75;12.50;;;13.40;99.90;;;;;;5042058;28;20382;-74
2023/07/18 02:46:58;;;;;;;34.55;13.45;;;13.40;99.90;;;;;;5042641;28;20052;-73
2023/07/18 02:49:24;;;;;;;26.80;12.30;;;13.40;99.90;;;;;;5041466;28;20025;-74
2023/07/18 02:51:49;;;;;;;30.63;12.80;;;13.30;99.90;;;;;;5040593;28;20137;-74
2023/07/18 02:54:15;;;;;;;28.38;13.10;;;13.30;99.90;;;;;;5040888;28;20634;-75
2023/07/18 02:56:40;;;;;;;28.63;12.38;;;13.40;99.90;;;;;;5039615;28;20025;-74
2023/07/18 02:59:06;;;;;;;29.77;12.90;;;13.30;99.90;;;;;;5040334;28;20056;-75
2023/07/18 03:01:34;;;;;;;32.67;13.55;;;13.30;99.90;;;;;;5042585;28;20390;-75
2023/07/18 03:04:00;;;;;;;31.65;12.88;;;13.30;99.90;;;;;;5039803;28;20512;-74
2023/07/18 03:06:26;;;;;;;31.23;13.80;;;13.30;99.90;;;;;;5041080;28;20029;-74
2023/07/18 03:08:51;;;;;;;24.10;12.40;;;13.30;99.90;;;;;;5039982;28;20041;-74
2023/07/18 03:11:18;;;;;;;35.17;13.23;;;13.30;99.90;;;;;;5040605;28;20021;-76
2023/07/18 03:13:44;;;;;;;31.00;13.45;;;13.20;99.90;;;;;;5040842;28;20090;-74
2023/07/18 03:16:10;;;;;;;25.50;12.50;;;13.30;99.90;;;;;;5041898;28;20025;-75
2023/07/18 03:18:36;;;;;;;29.58;13.07;;;13.20;99.90;;;;;;5041277;28;20029;-74
2023/07/18 03:21:02;;;;;;;30.40;12.63;;;13.30;99.90;;;;;;5041676;28;20060;-74
2023/07/18 03:23:27;;;;;;;32.00;13.05;;;13.30;99.90;;;;;;5041491;28;20033;-75
2023/07/18 03:25:53;;;;;;;29.95;12.93;;;13.30;99.90;;;;;;5040316;28;20025;-74
2023/07/18 03:28:19;;;;;;;32.78;13.07;;;13.30;99.90;;;;;;5041992;28;20075;-74
2023/07/18 03:30:45;;;;;;;27.40;12.23;;;13.20;99.90;;;;;;5040805;28;20083;-74
2023/07/18 03:33:11;;;;;;;29.30;12.32;;;13.20;99.90;;;;;;5041769;28;20026;-75
2023/07/18 03:35:37;;;;;;;34.00;13.45;;;13.30;99.90;;;;;;5041553;28;20089;-75
2023/07/18 03:38:02;;;;;;;29.27;13.73;;;13.30;99.90;;;;;;5040009;28;20045;-73
2023/07/18 03:40:28;;;;;;;30.45;13.20;;;13.30;99.90;;;;;;5043528;28;20017;-74
2023/07/18 03:42:54;;;;;;;30.92;13.48;;;13.20;99.90;;;;;;5044545;28;20056;-74
2023/07/18 03:45:20;;;;;;;28.83;11.90;;;13.30;99.90;;;;;;5045571;28;20033;-74
2023/07/18 03:47:45;;;;;;;34.72;13.27;;;13.30;99.90;;;;;;5045874;28;20387;-74
2023/07/18 03:50:13;;;;;;;28.35;12.05;;;13.30;99.90;;;;;;5045478;28;20051;-74
2023/07/18 03:52:39;;;;;;;32.80;13.57;;;13.30;99.90;;;;;;5044221;28;20104;-74
2023/07/18 03:55:06;;;;;;;35.70;13.07;;;13.30;99.90;;;;;;5044675;28;20025;-74
2023/07/18 03:57:33;;;;;;;30.70;12.93;;;13.30;99.90;;;;;;5044252;28;20034;-73
2023/07/18 03:59:59;;;;;;;30.80;12.85;;;13.30;99.90;;;;;;5045298;28;20220;-72
2023/07/18 04:02:25;;;;;;;36.38;14.07;;;13.30;99.90;;;;;;5043364;28;20414;-72
2023/07/18 04:04:51;;;;;;;35.17;13.00;;;13.30;99.90;;;;;;5043493;28;20036;-71
2023/07/18 04:07:17;;;;;;;33.42;13.73;;;13.30;99.90;;;;;;5045243;28;20021;-72
2023/07/18 04:09:43;;;;;;;33.65;12.68;;;13.40;99.90;;;;;;5045691;28;20029;-72
2023/07/18 04:12:09;;;;;;;30.30;13.25;;;13.40;99.90;;;;;;5044867;28;20022;-72
2023/07/18 04:14:35;;;;;;;21.35;10.95;;;13.40;99.90;;;;;;5042793;28;20022;-72
2023/07/18 04:17:02;;;;;;;27.70;11.73;;;13.40;99.90;;;;;;5044913;28;20021;-72
2023/07/18 04:19:29;;;;;;;24.13;12.15;;;13.30;99.90;;;;;;5045585;28;20026;-72
2023/07/18 04:21:55;;;;;;;25.63;12.63;;;13.30;99.90;;;;;;5041335;28;20017;-71
2023/07/18 04:24:21;;;;;;;26.83;12.00;;;13.30;99.90;;;;;;5050713;28;20116;-71
2023/07/18 04:26:47;;;;;;;29.48;12.88;;;13.30;99.90;;;;;;5043495;28;20037;-71
2023/07/18 04:29:13;;;;;;;29.15;12.05;;;13.30;99.90;;;;;;5044439;28;20056;-71
2023/07/18 04:31:38;;;;;;;35.25;13.15;;;13.40;99.90;;;;;;5043015;28;20446;-73
2023/07/18 04:34:04;;;;;;;31.90;13.48;;;13.40;99.90;;;;;;5041687;28;20072;-71
2023/07/18 04:36:30;;;;;;;41.25;14.02;;;13.40;99.90;;;;;;5044456;28;20068;-73
2023/07/18 04:38:55;;;;;;;27.73;12.20;;;13.40;99.90;;;;;;5043327;28;20029;-72
2023/07/18 04:41:21;;;;;;;31.95;13.88;;;13.40;99.90;;;;;;5042270;28;20060;-72
2023/07/18 04:43:47;;;;;;;34.40;15.30;;;13.40;99.90;;;;;;5044960;28;20036;-71
2023/07/18 04:46:12;;;;;;;33.15;14.20;;;13.40;99.90;;;;;;5044209;28;20024;-72
2023/07/18 04:48:38;;;;;;;35.90;15.45;;;13.40;99.90;;;;;;5043926;28;20092;-72
2023/07/18 04:51:04;;;;;;;38.65;15.60;;;13.50;99.90;;;;;;5044349;28;20041;-72
2023/07/18 04:53:31;;;;;;;38.33;15.52;;;13.50;99.90;;;;;;5042143;28;20455;-71
2023/07/18 04:55:56;;;;;;;38.20;15.60;;;13.50;99.90;;;;;;5043993;28;20017;-71
2023/07/18 04:58:24;;;;;;;33.13;16.55;;;13.50;99.90;;;;;;5044053;28;20681;-72
2023/07/18 05:00:51;;;;;;;36.42;16.17;;;13.50;99.90;;;;;;5044298;28;20017;-71
2023/07/18 05:03:16;;;;;;;36.80;15.65;;;13.60;99.90;;;;;;5042781;28;20465;-72
2023/07/18 05:05:42;;;;;;;37.95;15.48;;;13.60;99.90;;;;;;5041769;28;20041;-72
2023/07/18 05:08:08;;;;;;;36.70;16.17;;;13.70;99.90;;;;;;5042429;28;20029;-71
2023/07/18 05:10:34;;;;;;;46.60;16.95;;;13.70;99.90;;;;;;5043309;28;20022;-71
2023/07/18 05:13:00;;;;;;;34.40;16.20;;;13.70;99.90;;;;;;5044595;28;20097;-71
2023/07/18 05:15:25;;;;;;;39.05;17.48;;;13.80;99.90;;;;;;5040407;28;20029;-71
2023/07/18 05:17:51;;;;;;;30.25;15.10;;;13.90;99.90;;;;;;5043996;28;20048;-71
2023/07/18 05:20:17;;;;;;;40.95;15.85;;;13.90;99.90;;;;;;5042843;28;20103;-71
2023/07/18 05:22:44;;;;;;;32.38;14.27;;;13.90;99.90;;;;;;5043072;28;20056;-71
2023/07/18 05:25:12;;;;;;;36.65;15.57;;;14.00;99.90;;;;;;5043537;28;20120;-71
2023/07/18 05:27:39;;;;;;;35.97;14.40;;;14.00;99.90;;;;;;5043857;28;20060;-72
2023/07/18 05:30:10;;;;;;;35.22;14.68;;;14.00;99.90;;;;;;5042798;28;20084;-71
2023/07/18 05:32:35;;;;;;;31.30;13.73;;;14.10;99.90;;;;;;5044146;28;20533;-71
2023/07/18 05:35:02;;;;;;;29.98;13.77;;;14.00;99.90;;;;;;5044131;28;20025;-72
2023/07/18 05:37:29;;;;;;;32.38;14.15;;;14.10;99.90;;;;;;5043199;28;20040;-71
2023/07/18 05:39:54;;;;;;;32.95;13.68;;;14.20;99.90;;;;;;5042679;28;20132;-71
2023/07/18 05:42:20;;;;;;;32.40;13.93;;;14.20;99.90;;;;;;5042077;28;20041;-71
2023/07/18 05:44:46;;;;;;;26.52;12.68;;;14.30;99.90;;;;;;5043177;28;20018;-71
2023/07/18 05:47:11;;;;;;;30.30;13.07;;;14.30;99.90;;;;;;5043981;28;20025;-71
2023/07/18 05:49:37;;;;;;;31.58;12.70;;;14.40;99.90;;;;;;5043641;28;20026;-71
2023/07/18 05:52:03;;;;;;;27.10;12.43;;;14.40;99.90;;;;;;5042060;28;20061;-70
2023/07/18 05:54:30;;;;;;;29.00;12.18;;;14.40;99.90;;;;;;5042888;28;20041;-71
2023/07/18 05:56:59;;;;;;;25.13;12.80;;;14.50;99.90;;;;;;5041190;28;20423;-72
2023/07/18 05:59:26;;;;;;;35.20;13.20;;;14.50;99.90;;;;;;5042014;28;20502;-71
2023/07/18 06:01:52;;;;;;;29.88;11.80;;;14.60;99.90;;;;;;5043199;28;20032;-71
2023/07/18 06:04:18;;;;;;;29.73;12.20;;;14.60;99.90;;;;;;5042328;28;20025;-71
2023/07/18 06:06:43;;;;;;;29.10;12.32;;;14.70;99.90;;;;;;5043344;28;20076;-70
2023/07/18 06:09:09;;;;;;;27.45;11.43;;;14.70;99.90;;;;;;5043034;28;20036;-71
2023/07/18 06:11:35;;;;;;;31.55;11.90;;;14.70;99.90;;;;;;5041060;28;20025;-71
2023/07/18 06:14:01;;;;;;;26.10;11.50;;;14.80;99.90;;;;;;5044166;28;20034;-72
2023/07/18 06:16:27;;;;;;;26.83;10.82;;;14.80;99.90;;;;;;5043186;28;20029;-71
2023/07/18 06:18:53;;;;;;;30.13;11.23;;;14.80;99.90;;;;;;5041582;28;20064;-70
2023/07/18 06:21:19;;;;;;;26.10;11.35;;;14.80;99.90;;;;;;5041402;28;20036;-71
2023/07/18 06:23:44;;;;;;;26.42;11.27;;;14.80;99.90;;;;;;5042339;28;20100;-71
2023/07/18 06:26:10;;;;;;;29.40;10.68;;;14.80;99.90;;;;;;5042056;28;20036;-70
2023/07/18 06:28:35;;;;;;;27.15;11.07;;;14.80;99.90;;;;;;5039706;28;20348;-72
2023/07/18 06:31:02;;;;;;;26.83;10.98;;;14.80;99.90;;;;;;5041788;28;20055;-72
2023/07/18 06:33:28;;;;;;;27.73;11.10;;;14.90;99.90;;;;;;5041351;28;20557;-71
2023/07/18 06:35:55;;;;;;;24.42;10.43;;;15.00;99.90;;;;;;5041198;28;20359;-70
2023/07/18 06:38:21;;;;;;;30.08;10.27;;;15.00;99.90;;;;;;5041202;28;20140;-71
2023/07/18 06:40:48;;;;;;;25.48;10.05;;;15.00;99.90;;;;;;5041889;28;20017;-71
2023/07/18 06:43:14;;;;;;;26.67;10.32;;;15.10;99.90;;;;;;5041553;28;20060;-71
2023/07/18 06:45:44;;;;;;;28.38;10.13;;;15.20;99.90;;;;;;5039777;28;20025;-70
2023/07/18 06:48:09;;;;;;;24.50;10.60;;;15.20;99.90;;;;;;5041594;28;20017;-70
2023/07/18 06:50:36;;;;;;;31.13;10.23;;;15.20;99.90;;;;;;5042522;28;20110;-71
2023/07/18 06:53:02;;;;;;;25.60;9.63;;;15.30;99.90;;;;;;5038726;28;20409;-70
2023/07/18 06:55:30;;;;;;;23.98;9.63;;;15.30;99.90;;;;;;5041470;28;20029;-70
2023/07/18 06:57:56;;;;;;;27.48;10.48;;;15.40;99.90;;;;;;5041584;28;20044;-71
2023/07/18 07:00:22;;;;;;;33.42;10.80;;;15.40;99.90;;;;;;5041927;28;20029;-70
2023/07/18 07:02:47;;;;;;;33.90;11.45;;;15.40;99.90;;;;;;5042362;28;20064;-69
2023/07/18 07:05:14;;;;;;;32.72;10.55;;;15.50;99.90;;;;;;5041909;28;20021;-70
2023/07/18 07:07:40;;;;;;;28.80;9.95;;;15.60;99.90;;;;;;5039138;28;20116;-70
2023/07/18 07:10:09;;;;;;;27.80;9.75;;;15.70;99.90;;;;;;5038515;28;20021;-69
2023/07/18 07:12:35;;;;;;;27.65;9.98;;;15.80;99.90;;;;;;5036955;28;20486;-69
2023/07/18 07:15:01;;;;;;;26.75;9.73;;;15.90;99.90;;;;;;5040564;28;20037;-69
2023/07/18 07:17:26;;;;;;;31.05;9.15;;;16.00;99.90;;;;;;5041477;28;20043;-69
2023/07/18 07:19:52;;;;;;;27.67;10.13;;;16.20;99.90;;;;;;5038771;28;20029;-70
2023/07/18 07:22:18;;;;;;;26.52;9.57;;;16.30;99.90;;;;;;5040999;28;20022;-68
2023/07/18 07:24:47;;;;;;;26.52;10.10;;;16.30;99.90;;;;;;5039033;28;20041;-69
2023/07/18 07:27:13;;;;;;;29.80;8.88;;;16.40;99.90;;;;;;5040053;28;20026;-69
2023/07/18 07:29:39;;;;;;;28.35;9.15;;;16.50;99.90;;;;;;5039767;28;20119;-68
2023/07/18 07:32:06;;;;;;;23.08;8.45;;;16.50;99.90;;;;;;5041261;28;20530;-69
2023/07/18 07:34:32;;;;;;;28.60;9.27;;;16.50;99.90;;;;;;5039863;28;20029;-69
2023/07/18 07:36:58;;;;;;;30.70;8.88;;;16.50;99.90;;;;;;5040703;28;20037;-69
2023/07/18 07:39:23;;;;;;;28.13;9.20;;;16.60;99.90;;;;;;5039321;28;20067;-68
2023/07/18 07:41:49;;;;;;;31.15;8.98;;;16.70;99.90;;;;;;5039875;28;20033;-68
2023/07/18 07:44:14;;;;;;;29.00;8.68;;;16.80;99.90;;;;;;5041167;28;20088;-69
2023/07/18 07:46:40;;;;;;;22.65;8.23;;;16.80;99.90;;;;;;5042306;28;20025;-69
2023/07/18 07:49:06;;;;;;;24.73;8.30;;;16.90;99.90;;;;;;5040430;28;20471;-69
2023/07/18 07:51:32;;;;;;;26.20;8.25;;;17.00;99.90;;;;;;5041715;28;20045;-69
2023/07/18 07:53:58;;;;;;;29.65;8.68;;;17.10;99.90;;;;;;5041707;28;20974;-68
2023/07/18 07:56:24;;;;;;;19.75;8.07;;;17.10;99.90;;;;;;5040089;28;20104;-70
2023/07/18 07:58:50;;;;;;;29.30;9.25;;;17.20;99.90;;;;;;5040757;28;20142;-69
2023/07/18 08:01:16;;;;;;;29.20;9.25;;;17.30;99.90;;;;;;5041174;28;20121;-69
2023/07/18 08:03:44;;;;;;;23.50;8.30;;;17.40;99.90;;;;;;5039458;28;20021;-71
2023/07/18 08:06:09;;;;;;;21.05;8.02;;;17.40;99.90;;;;;;5039859;28;20033;-69
2023/07/18 08:08:35;;;;;;;21.20;7.35;;;17.50;99.90;;;;;;5040065;28;20987;-70
2023/07/18 08:11:01;;;;;;;26.27;8.40;;;17.50;99.90;;;;;;5040429;28;20040;-69
2023/07/18 08:13:28;;;;;;;15.88;6.82;;;17.60;99.90;;;;;;5039710;28;20037;-69
2023/07/18 08:15:54;;;;;;;17.67;6.78;;;17.70;99.90;;;;;;5040027;28;20514;-68
2023/07/18 08:18:20;;;;;;;20.73;6.75;;;17.70;99.90;;;;;;5039261;28;20037;-69
2023/07/18 08:20:45;;;;;;;20.42;5.30;;;17.70;99.90;;;;;;5037873;28;20502;-69
2023/07/18 08:23:11;;;;;;;14.15;4.90;;;17.80;99.90;;;;;;5040038;28;20083;-69
2023/07/18 08:25:37;;;;;;;19.98;5.53;;;17.90;99.90;;;;;;5040106;28;20084;-68
2023/07/18 08:28:02;;;;;;;19.27;4.55;;;17.90;99.90;;;;;;5043891;28;20093;-68
2023/07/18 08:30:28;;;;;;;20.42;4.82;;;18.00;99.90;;;;;;5044005;28;20041;-68
2023/07/18 08:32:53;;;;;;;18.63;4.70;;;18.10;99.90;;;;;;5044507;28;20026;-73
2023/07/18 08:35:19;;;;;;;16.05;4.10;;;18.10;99.90;;;;;;5045026;28;20033;-70
2023/07/18 08:37:45;;;;;;;10.68;3.45;;;18.10;99.90;;;;;;5042265;28;20136;-68
2023/07/18 08:40:12;;;;;;;11.38;3.38;;;18.10;99.90;;;;;;5042534;28;20034;-70
2023/07/18 08:42:38;;;;;;;12.45;4.30;;;18.10;99.90;;;;;;5042649;28;20067;-69
2023/07/18 08:45:05;;;;;;;15.43;4.18;;;18.20;99.90;;;;;;5043919;28;20527;-70
2023/07/18 08:47:31;;;;;;;10.80;3.63;;;18.30;99.90;;;;;;5042650;28;20387;-69
2023/07/18 08:49:58;;;;;;;16.77;3.10;;;18.30;99.90;;;;;;5044077;28;20029;-69
2023/07/18 08:52:24;;;;;;;17.27;3.80;;;18.40;99.90;;;;;;5043460;28;20037;-68
2023/07/18 08:54:50;;;;;;;16.23;4.35;;;18.40;99.90;;;;;;5044060;28;20077;-69
2023/07/18 08:57:16;;;;;;;8.32;2.80;;;18.40;99.90;;;;;;5043698;28;20494;-68
2023/07/18 08:59:43;;;;;;;11.85;3.20;;;18.50;99.90;;;;;;5043738;28;20033;-70
2023/07/18 09:02:10;;;;;;;10.43;3.15;;;18.60;99.90;;;;;;5038549;28;20034;-68
2023/07/18 09:04:36;;;;;;;7.32;2.53;;;18.70;99.90;;;;;;5039616;28;20045;-66
2023/07/18 09:07:02;;;;;;;7.18;2.33;;;18.70;99.90;;;;;;5042259;28;20037;-67
2023/07/18 09:09:28;;;;;;;15.40;3.05;;;18.80;99.90;;;;;;5043538;28;20021;-67
2023/07/18 09:12:01;;;;;;;9.20;2.40;;;18.90;99.90;;;;;;5043420;28;20477;-68
2023/07/18 09:14:29;;;;;;;11.00;2.58;;;19.00;99.90;;;;;;5042891;28;20021;-66
2023/07/18 09:16:56;;;;;;;10.63;2.95;;;19.10;99.90;;;;;;5042930;28;20029;-68
2023/07/18 09:19:41;;;;;;;10.13;2.35;;;19.10;99.90;;;;;;5042772;28;20116;-69
2023/07/18 09:22:09;;;;;;;7.88;2.63;;;19.20;99.90;;;;;;5042436;28;20056;-72
2023/07/18 09:24:35;;;;;;;9.38;2.58;;;19.20;99.90;;;;;;5043365;28;20083;-69
2023/07/18 09:27:04;;;;;;;9.55;2.50;;;19.30;99.90;;;;;;5043037;28;20053;-67
2023/07/18 09:29:30;;;;;;;5.75;2.28;;;19.40;99.90;;;;;;5042924;28;20099;-66
2023/07/18 09:31:55;;;;;;;10.07;2.22;;;19.50;99.90;;;;;;5042811;28;20454;-69
2023/07/18 09:34:21;;;;;;;5.90;2.25;;;19.60;99.90;;;;;;5042741;28;20018;-66
2023/07/18 09:37:01;;;;;;;4.50;1.83;;;19.70;99.90;;;;;;5043170;28;20030;-70
2023/07/18 09:39:27;;;;;;;8.80;2.20;;;19.70;99.90;;;;;;5042019;28;20030;-67
2023/07/18 09:41:54;;;;;;;8.25;2.20;;;19.70;99.90;;;;;;5042514;28;20096;-69
2023/07/18 09:44:23;;;;;;;7.15;2.20;;;19.80;99.90;;;;;;5042309;28;20025;-68
2023/07/18 09:46:50;;;;;;;8.05;2.10;;;19.80;99.90;;;;;;5041961;28;20025;-69
2023/07/18 09:49:19;;;;;;;9.38;2.05;;;19.80;99.90;;;;;;5043324;28;20056;-69
2023/07/18 09:51:54;;;;;;;12.90;2.20;;;19.90;99.90;;;;;;5043369;28;20053;-69
2023/07/18 09:54:20;;;;;;;8.52;2.20;;;19.90;99.90;;;;;;5043132;28;20041;-69
2023/07/18 09:56:48;;;;;;;6.95;1.95;;;20.00;99.90;;;;;;5043057;28;20017;-69
2023/07/18 09:59:13;;;;;;;6.95;2.03;;;20.00;99.90;;;;;;5042795;28;20026;-70
2023/07/18 10:01:40;;;;;;;10.32;2.45;;;20.00;99.90;;;;;;5041599;28;20072;-67
2023/07/18 10:04:07;;;;;;;7.60;2.40;;;20.00;99.90;;;;;;5043233;28;20029;-68
2023/07/18 10:06:33;;;;;;;9.38;3.10;;;20.00;99.90;;;;;;5042958;28;20025;-67
2023/07/18 10:09:00;;;;;;;9.60;2.22;;;20.00;99.90;;;;;;5042154;28;20868;-70
2023/07/18 10:11:26;;;;;;;10.02;1.90;;;19.90;99.90;;;;;;5042799;28;20022;-69
2023/07/18 10:13:54;;;;;;;10.13;2.10;;;19.90;99.90;;;;;;5042631;28;20022;-69
2023/07/18 10:16:21;;;;;;;13.75;2.30;;;20.00;99.90;;;;;;5040844;28;20026;-67
2023/07/18 10:18:51;;;;;;;9.88;2.45;;;20.20;99.90;;;;;;5042170;28;20063;-67
2023/07/18 10:21:33;;;;;;;8.48;2.20;;;20.30;99.90;;;;;;5042104;28;20033;-69
2023/07/18 10:24:24;;;;;;;6.38;1.67;;;20.50;99.90;;;;;;5041129;28;20037;-67
2023/07/18 10:27:06;;;;;;;5.43;2.30;;;20.50;99.90;;;;;;5041990;28;20052;-68
2023/07/18 10:29:32;;;;;;;8.48;2.15;;;20.60;99.90;;;;;;5042286;28;20080;-73
2023/07/18 10:31:59;;;;;;;11.55;2.40;;;20.60;99.90;;;;;;5042850;28;20477;-68
2023/07/18 10:34:25;;;;;;;11.73;2.10;;;20.50;99.90;;;;;;5042416;28;20033;-71
2023/07/18 10:36:54;;;;;;;7.57;2.25;;;20.40;99.90;;;;;;5042702;28;20029;-69
2023/07/18 10:39:48;;;;;;;9.48;2.47;;;20.40;99.90;;;;;;5041510;28;20125;-68
2023/07/18 10:42:21;;;;;;;6.00;2.15;;;20.40;99.90;;;;;;5042209;28;20052;-70
2023/07/18 10:44:54;;;;;;;7.85;2.50;;;20.50;99.90;;;;;;5041509;28;20026;-69
2023/07/18 10:47:19;;;;;;;6.95;2.08;;;20.40;99.90;;;;;;5041258;28;20081;-69
2023/07/18 10:49:47;;;;;;;10.00;2.30;;;20.40;99.90;;;;;;5041413;28;20029;-68
2023/07/18 10:52:14;;;;;;;8.25;2.20;;;20.50;99.90;;;;;;5041823;28;20050;-67
2023/07/18 10:54:56;;;;;;;4.15;1.92;;;20.70;99.90;;;;;;5042266;28;20025;-69
2023/07/18 10:57:29;;;;;;;9.07;2.08;;;20.90;99.90;;;;;;5040678;28;20073;-68
2023/07/18 10:59:55;;;;;;;5.40;1.77;;;21.10;99.90;;;;;;5041985;28;20093;-69
2023/07/18 11:02:22;;;;;;;12.05;2.20;;;21.30;99.90;;;;;;5041821;28;20136;-70
2023/07/18 11:04:51;;;;;;;6.10;2.03;;;21.40;99.90;;;;;;5040466;28;20024;-72
2023/07/18 11:07:17;;;;;;;7.60;2.10;;;21.50;99.90;;;;;;5039677;28;20036;-69
2023/07/18 11:09:43;;;;;;;10.07;2.47;;;21.50;99.90;;;;;;5041472;28;20021;-68
2023/07/18 11:12:18;;;;;;;6.28;2.10;;;21.50;99.90;;;;;;5040994;28;20089;-69
2023/07/18 11:14:46;;;;;;;7.38;2.00;;;21.40;99.90;;;;;;5040542;28;20116;-69
2023/07/18 11:17:19;;;;;;;8.02;1.95;;;21.30;99.90;;;;;;5041126;28;20021;-70
2023/07/18 11:19:46;;;;;;;9.55;2.17;;;21.40;99.90;;;;;;5037894;28;20080;-70
2023/07/18 11:22:14;;;;;;;6.15;2.00;;;21.60;99.90;;;;;;5040297;28;20052;-70
2023/07/18 11:24:44;;;;;;;6.95;1.75;;;21.70;99.90;;;;;;5041206;28;20021;-70
2023/07/18 11:27:13;;;;;;;10.55;1.83;;;21.70;99.90;;;;;;5039352;28;20022;-71
2023/07/18 11:29:38;;;;;;;7.65;1.75;;;21.70;99.90;;;;;;5040433;28;20060;-68
2023/07/18 11:32:05;;;;;;;9.13;2.45;;;21.60;99.90;;;;;;5041514;28;20041;-71
2023/07/18 11:34:30;;;;;;;15.77;2.33;;;21.50;99.90;;;;;;5041245;28;20041;-70
2023/07/18 11:36:56;;;;;;;7.60;2.15;;;21.50;99.90;;;;;;5040149;28;20017;-67
2023/07/18 11:39:22;;;;;;;5.78;1.70;;;21.40;99.90;;;;;;5040203;28;20061;-69
2023/07/18 11:41:48;;;;;;;7.15;2.28;;;21.20;99.90;;;;;;5039989;28;20447;-70
2023/07/18 11:44:25;;;;;;;6.85;2.10;;;21.20;99.90;;;;;;5040577;28;20486;-71
2023/07/18 11:46:52;;;;;;;10.00;1.90;;;21.00;99.90;;;;;;5041279;28;20022;-69
2023/07/18 11:49:31;;;;;;;5.25;1.90;;;20.90;99.90;;;;;;5039108;28;20097;-68
2023/07/18 11:51:57;;;;;;;4.68;1.95;;;20.80;99.90;;;;;;5037510;28;20057;-68
2023/07/18 11:54:26;;;;;;;7.25;2.25;;;20.70;99.90;;;;;;5039952;28;20101;-69
2023/07/18 11:56:52;;;;;;;7.43;2.92;;;20.60;99.90;;;;;;5041160;28;20030;-70
2023/07/18 11:59:17;;;;;;;8.60;2.55;;;20.50;99.90;;;;;;5041377;28;20045;-69
2023/07/18 12:01:43;;;;;;;5.85;2.25;;;20.50;99.90;;;;;;5042927;28;20026;-68
2023/07/18 12:04:15;;;;;;;8.40;2.50;;;20.40;99.90;;;;;;5045076;28;20026;-71
2023/07/18 12:06:43;;;;;;;14.98;3.40;;;20.40;99.90;;;;;;5045799;28;20060;-69
2023/07/18 12:09:09;;;;;;;8.70;2.45;;;20.30;99.90;;;;;;5040417;28;20025;-69
2023/07/18 12:11:35;;;;;;;9.35;2.17;;;20.30;99.90;;;;;;5042941;28;20513;-69
2023/07/18 12:14:02;;;;;;;8.30;2.50;;;20.30;99.90;;;;;;5043263;28;20406;-69
2023/07/18 12:16:27;;;;;;;7.15;2.70;;;20.40;99.90;;;;;;5042962;28;20038;-69
2023/07/18 12:18:53;;;;;;;9.40;2.47;;;20.30;99.90;;;;;;5044242;28;20608;-69
2023/07/18 12:21:19;;;;;;;9.02;2.33;;;20.30;99.90;;;;;;5043000;28;20026;-70
2023/07/18 12:23:44;;;;;;;6.13;1.98;;;20.30;99.90;;;;;;5043346;28;20013;-69
2023/07/18 12:26:10;;;;;;;7.03;2.05;;;20.30;99.90;;;;;;5045335;28;20489;-69
2023/07/18 12:28:36;;;;;;;11.23;2.75;;;20.30;99.90;;;;;;5043856;28;20092;-69
2023/07/18 12:31:02;;;;;;;9.80;2.28;;;20.30;99.90;;;;;;5043902;28;20029;-71